sensor_id;sensor_type;location;lat;lon;timestamp;temperature;humidity
13600;DHT22;6871;51.34740610;4.31323160;2023-12-07T00:00:42;12.90;83.30
13600;DHT22;6871;51.34740610;4.31323160;2023-12-07T00:03:15;12.90;83.30
13600;DHT22;6871;51.34740610;4.31323160;2023-12-07T00:05:44;12.90;83.30
13600;DHT22;6871;51.34740610;4.31323160;2023-12-07T00:08:13;12.90;83.30
13600;DHT22;6871;51.34740610;4.31323160;2023-12-07T00:10:42;12.90;84.00
13600;DHT22;6871;51.34740610;4.31323160;2023-12-07T00:13:12;12.80;83.30
13600;DHT22;6871;51.34740610;4.31323160;2023-12-07T00:15:41;12.80;83.30
13600;DHT22;6871;51.34740610;4.31323160;2023-12-07T00:18:14;12.80;83.30
13600;DHT22;6871;51.34740610;4.31323160;2023-12-07T00:20:43;12.80;83.30
13600;DHT22;6871;51.34740610;4.31323160;2023-12-07T00:23:12;12.80;83.30
13600;DHT22;6871;51.34740610;4.31323160;2023-12-07T00:25:43;12.80;83.40
13600;DHT22;6871;51.34740610;4.31323160;2023-12-07T00:28:13;12.80;83.40
13600;DHT22;6871;51.34740610;4.31323160;2023-12-07T00:30:43;12.80;83.40
13600;DHT22;6871;51.34740610;4.31323160;2023-12-07T00:33:13;12.80;83.40
13600;DHT22;6871;51.34740610;4.31323160;2023-12-07T00:35:42;12.80;83.50
13600;DHT22;6871;51.34740610;4.31323160;2023-12-07T00:38:11;12.70;83.40
13600;DHT22;6871;51.34740610;4.31323160;2023-12-07T00:40:42;12.70;83.50
13600;DHT22;6871;51.34740610;4.31323160;2023-12-07T00:43:11;12.70;83.40
13600;DHT22;6871;51.34740610;4.31323160;2023-12-07T00:45:40;12.70;83.40
13600;DHT22;6871;51.34740610;4.31323160;2023-12-07T00:48:10;12.70;83.50
13600;DHT22;6871;51.34740610;4.31323160;2023-12-07T00:50:39;12.70;83.60
13600;DHT22;6871;51.34740610;4.31323160;2023-12-07T00:53:08;12.70;83.50
13600;DHT22;6871;51.34740610;4.31323160;2023-12-07T00:55:38;12.70;83.50
13600;DHT22;6871;51.34740610;4.31323160;2023-12-07T00:58:10;12.70;83.50
13600;DHT22;6871;51.34740610;4.31323160;2023-12-07T01:00:39;12.70;83.50
13600;DHT22;6871;51.34740610;4.31323160;2023-12-07T01:03:11;12.70;83.50
13600;DHT22;6871;51.34740610;4.31323160;2023-12-07T01:05:40;12.70;83.50
13600;DHT22;6871;51.34740610;4.31323160;2023-12-07T01:08:10;12.70;83.50
13600;DHT22;6871;51.34740610;4.31323160;2023-12-07T01:10:40;12.70;83.50
13600;DHT22;6871;51.34740610;4.31323160;2023-12-07T01:13:13;12.60;83.50
13600;DHT22;6871;51.34740610;4.31323160;2023-12-07T01:15:44;12.60;83.50
13600;DHT22;6871;51.34740610;4.31323160;2023-12-07T01:18:14;12.60;83.50
13600;DHT22;6871;51.34740610;4.31323160;2023-12-07T01:20:44;12.60;83.60
13600;DHT22;6871;51.34740610;4.31323160;2023-12-07T01:23:16;12.60;83.50
13600;DHT22;6871;51.34740610;4.31323160;2023-12-07T01:25:45;12.60;83.60
13600;DHT22;6871;51.34740610;4.31323160;2023-12-07T01:28:14;12.60;83.70
13600;DHT22;6871;51.34740610;4.31323160;2023-12-07T01:30:43;12.60;83.60
13600;DHT22;6871;51.34740610;4.31323160;2023-12-07T01:33:13;12.60;83.60
13600;DHT22;6871;51.34740610;4.31323160;2023-12-07T01:35:43;12.60;83.60
13600;DHT22;6871;51.34740610;4.31323160;2023-12-07T01:38:14;12.60;83.60
13600;DHT22;6871;51.34740610;4.31323160;2023-12-07T01:40:43;12.60;83.60
13600;DHT22;6871;51.34740610;4.31323160;2023-12-07T01:43:12;12.60;83.60
13600;DHT22;6871;51.34740610;4.31323160;2023-12-07T01:45:42;12.60;83.60
13600;DHT22;6871;51.34740610;4.31323160;2023-12-07T01:48:11;12.50;83.60
13600;DHT22;6871;51.34740610;4.31323160;2023-12-07T01:50:40;12.50;84.40
13600;DHT22;6871;51.34740610;4.31323160;2023-12-07T01:53:10;12.50;83.60
13600;DHT22;6871;51.34740610;4.31323160;2023-12-07T01:55:41;12.50;83.60
13600;DHT22;6871;51.34740610;4.31323160;2023-12-07T01:58:11;12.50;83.60
13600;DHT22;6871;51.34740610;4.31323160;2023-12-07T02:00:42;12.50;83.60
13600;DHT22;6871;51.34740610;4.31323160;2023-12-07T02:03:12;12.50;83.60
13600;DHT22;6871;51.34740610;4.31323160;2023-12-07T02:05:46;12.50;83.60
13600;DHT22;6871;51.34740610;4.31323160;2023-12-07T02:08:14;12.50;83.60
13600;DHT22;6871;51.34740610;4.31323160;2023-12-07T02:10:43;12.50;83.70
13600;DHT22;6871;51.34740610;4.31323160;2023-12-07T02:13:13;12.50;83.70
13600;DHT22;6871;51.34740610;4.31323160;2023-12-07T02:15:42;12.50;83.60
13600;DHT22;6871;51.34740610;4.31323160;2023-12-07T02:18:19;12.50;83.70
13600;DHT22;6871;51.34740610;4.31323160;2023-12-07T02:20:51;12.50;83.70
13600;DHT22;6871;51.34740610;4.31323160;2023-12-07T02:23:22;12.50;83.60
13600;DHT22;6871;51.34740610;4.31323160;2023-12-07T02:25:53;12.50;83.80
13600;DHT22;6871;51.34740610;4.31323160;2023-12-07T02:28:26;12.50;83.70
13600;DHT22;6871;51.34740610;4.31323160;2023-12-07T02:30:56;12.40;83.70
13600;DHT22;6871;51.34740610;4.31323160;2023-12-07T02:33:25;12.50;83.80
13600;DHT22;6871;51.34740610;4.31323160;2023-12-07T02:35:54;12.50;83.80
13600;DHT22;6871;51.34740610;4.31323160;2023-12-07T02:38:26;12.50;83.80
13600;DHT22;6871;51.34740610;4.31323160;2023-12-07T02:40:58;12.50;83.80
13600;DHT22;6871;51.34740610;4.31323160;2023-12-07T02:43:29;12.50;83.80
13600;DHT22;6871;51.34740610;4.31323160;2023-12-07T02:46:01;12.50;83.80
13600;DHT22;6871;51.34740610;4.31323160;2023-12-07T02:48:32;12.40;83.80
13600;DHT22;6871;51.34740610;4.31323160;2023-12-07T02:51:01;12.50;83.90
13600;DHT22;6871;51.34740610;4.31323160;2023-12-07T02:53:31;12.40;83.80
13600;DHT22;6871;51.34740610;4.31323160;2023-12-07T02:56:00;12.40;83.80
13600;DHT22;6871;51.34740610;4.31323160;2023-12-07T02:58:30;12.40;83.80
13600;DHT22;6871;51.34740610;4.31323160;2023-12-07T03:00:59;12.40;83.90
13600;DHT22;6871;51.34740610;4.31323160;2023-12-07T03:03:29;12.40;83.80
13600;DHT22;6871;51.34740610;4.31323160;2023-12-07T03:06:00;12.50;83.80
13600;DHT22;6871;51.34740610;4.31323160;2023-12-07T03:08:29;12.40;83.80
13600;DHT22;6871;51.34740610;4.31323160;2023-12-07T03:10:58;12.40;83.80
13600;DHT22;6871;51.34740610;4.31323160;2023-12-07T03:13:27;12.40;83.80
13600;DHT22;6871;51.34740610;4.31323160;2023-12-07T03:15:57;12.40;83.80
13600;DHT22;6871;51.34740610;4.31323160;2023-12-07T03:18:26;12.40;83.80
13600;DHT22;6871;51.34740610;4.31323160;2023-12-07T03:20:56;12.40;83.80
13600;DHT22;6871;51.34740610;4.31323160;2023-12-07T03:23:26;12.40;83.80
13600;DHT22;6871;51.34740610;4.31323160;2023-12-07T03:25:55;12.40;83.80
13600;DHT22;6871;51.34740610;4.31323160;2023-12-07T03:28:25;12.40;83.90
13600;DHT22;6871;51.34740610;4.31323160;2023-12-07T03:30:54;12.40;83.80
13600;DHT22;6871;51.34740610;4.31323160;2023-12-07T03:33:23;12.40;83.80
13600;DHT22;6871;51.34740610;4.31323160;2023-12-07T03:35:52;12.40;83.90
13600;DHT22;6871;51.34740610;4.31323160;2023-12-07T03:38:22;12.40;83.90
13600;DHT22;6871;51.34740610;4.31323160;2023-12-07T03:40:51;12.40;83.90
13600;DHT22;6871;51.34740610;4.31323160;2023-12-07T03:43:24;12.40;83.90
13600;DHT22;6871;51.34740610;4.31323160;2023-12-07T03:45:54;12.40;83.90
13600;DHT22;6871;51.34740610;4.31323160;2023-12-07T03:48:23;12.40;83.90
13600;DHT22;6871;51.34740610;4.31323160;2023-12-07T03:50:52;12.40;83.90
13600;DHT22;6871;51.34740610;4.31323160;2023-12-07T03:53:22;12.40;83.90
13600;DHT22;6871;51.34740610;4.31323160;2023-12-07T03:55:51;12.40;83.90
13600;DHT22;6871;51.34740610;4.31323160;2023-12-07T03:58:20;12.40;83.90
13600;DHT22;6871;51.34740610;4.31323160;2023-12-07T04:00:50;12.40;83.90
13600;DHT22;6871;51.34740610;4.31323160;2023-12-07T04:03:20;12.40;83.80
13600;DHT22;6871;51.34740610;4.31323160;2023-12-07T04:05:49;12.40;83.90
13600;DHT22;6871;51.34740610;4.31323160;2023-12-07T04:08:18;12.40;83.90
13600;DHT22;6871;51.34740610;4.31323160;2023-12-07T04:10:47;12.40;83.90
13600;DHT22;6871;51.34740610;4.31323160;2023-12-07T04:13:17;12.40;83.90
13600;DHT22;6871;51.34740610;4.31323160;2023-12-07T04:15:47;12.40;83.90
13600;DHT22;6871;51.34740610;4.31323160;2023-12-07T04:18:17;12.40;83.90
13600;DHT22;6871;51.34740610;4.31323160;2023-12-07T04:20:46;12.40;83.90
13600;DHT22;6871;51.34740610;4.31323160;2023-12-07T04:23:15;12.40;83.90
13600;DHT22;6871;51.34740610;4.31323160;2023-12-07T04:25:45;12.30;83.80
13600;DHT22;6871;51.34740610;4.31323160;2023-12-07T04:28:14;12.30;83.50
13600;DHT22;6871;51.34740610;4.31323160;2023-12-07T04:30:43;12.30;83.90
13600;DHT22;6871;51.34740610;4.31323160;2023-12-07T04:33:13;12.30;83.80
13600;DHT22;6871;51.34740610;4.31323160;2023-12-07T04:35:42;12.30;83.90
13600;DHT22;6871;51.34740610;4.31323160;2023-12-07T04:38:11;12.30;83.90
13600;DHT22;6871;51.34740610;4.31323160;2023-12-07T04:40:41;12.30;83.80
13600;DHT22;6871;51.34740610;4.31323160;2023-12-07T04:43:11;12.30;83.80
13600;DHT22;6871;51.34740610;4.31323160;2023-12-07T04:45:43;12.30;83.80
13600;DHT22;6871;51.34740610;4.31323160;2023-12-07T04:48:12;12.30;83.80
13600;DHT22;6871;51.34740610;4.31323160;2023-12-07T04:50:41;12.30;83.80
13600;DHT22;6871;51.34740610;4.31323160;2023-12-07T04:53:11;12.30;83.80
13600;DHT22;6871;51.34740610;4.31323160;2023-12-07T04:55:40;12.30;83.90
13600;DHT22;6871;51.34740610;4.31323160;2023-12-07T04:58:12;12.30;83.90
13600;DHT22;6871;51.34740610;4.31323160;2023-12-07T05:00:41;12.30;83.80
13600;DHT22;6871;51.34740610;4.31323160;2023-12-07T05:03:11;12.30;83.90
13600;DHT22;6871;51.34740610;4.31323160;2023-12-07T05:05:41;12.30;83.80
13600;DHT22;6871;51.34740610;4.31323160;2023-12-07T05:08:11;12.30;83.70
13600;DHT22;6871;51.34740610;4.31323160;2023-12-07T05:10:40;12.30;83.70
13600;DHT22;6871;51.34740610;4.31323160;2023-12-07T05:13:09;12.30;83.80
13600;DHT22;6871;51.34740610;4.31323160;2023-12-07T05:15:38;12.30;83.80
13600;DHT22;6871;51.34740610;4.31323160;2023-12-07T05:18:08;12.30;83.80
13600;DHT22;6871;51.34740610;4.31323160;2023-12-07T05:20:37;12.30;83.80
13600;DHT22;6871;51.34740610;4.31323160;2023-12-07T05:23:07;12.30;83.80
13600;DHT22;6871;51.34740610;4.31323160;2023-12-07T05:25:37;12.30;83.80
13600;DHT22;6871;51.34740610;4.31323160;2023-12-07T05:28:06;12.30;83.80
13600;DHT22;6871;51.34740610;4.31323160;2023-12-07T05:30:36;12.30;83.70
13600;DHT22;6871;51.34740610;4.31323160;2023-12-07T05:33:05;12.30;83.70
13600;DHT22;6871;51.34740610;4.31323160;2023-12-07T05:35:36;12.30;83.80
13600;DHT22;6871;51.34740610;4.31323160;2023-12-07T05:38:05;12.20;83.80
13600;DHT22;6871;51.34740610;4.31323160;2023-12-07T05:40:35;12.20;83.80
13600;DHT22;6871;51.34740610;4.31323160;2023-12-07T05:43:04;12.20;83.70
13600;DHT22;6871;51.34740610;4.31323160;2023-12-07T05:45:33;12.20;83.80
13600;DHT22;6871;51.34740610;4.31323160;2023-12-07T05:48:06;12.20;83.70
13600;DHT22;6871;51.34740610;4.31323160;2023-12-07T05:50:35;12.20;83.70
13600;DHT22;6871;51.34740610;4.31323160;2023-12-07T05:53:06;12.20;83.70
13600;DHT22;6871;51.34740610;4.31323160;2023-12-07T05:55:36;12.20;83.80
13600;DHT22;6871;51.34740610;4.31323160;2023-12-07T05:58:06;12.20;83.70
13600;DHT22;6871;51.34740610;4.31323160;2023-12-07T06:00:36;12.20;83.70
13600;DHT22;6871;51.34740610;4.31323160;2023-12-07T06:03:07;12.20;83.70
13600;DHT22;6871;51.34740610;4.31323160;2023-12-07T06:05:39;12.20;83.80
13600;DHT22;6871;51.34740610;4.31323160;2023-12-07T06:08:08;12.20;83.70
13600;DHT22;6871;51.34740610;4.31323160;2023-12-07T06:10:37;12.20;83.60
13600;DHT22;6871;51.34740610;4.31323160;2023-12-07T06:13:07;12.20;83.60
13600;DHT22;6871;51.34740610;4.31323160;2023-12-07T06:15:36;12.20;83.50
13600;DHT22;6871;51.34740610;4.31323160;2023-12-07T06:18:06;12.30;83.50
13600;DHT22;6871;51.34740610;4.31323160;2023-12-07T06:20:35;12.30;83.70
13600;DHT22;6871;51.34740610;4.31323160;2023-12-07T06:23:05;12.30;84.30
13600;DHT22;6871;51.34740610;4.31323160;2023-12-07T06:25:34;12.30;83.80
13600;DHT22;6871;51.34740610;4.31323160;2023-12-07T06:28:04;12.40;83.80
13600;DHT22;6871;51.34740610;4.31323160;2023-12-07T06:30:34;12.50;83.30
13600;DHT22;6871;51.34740610;4.31323160;2023-12-07T06:33:03;12.50;82.90
13600;DHT22;6871;51.34740610;4.31323160;2023-12-07T06:35:32;12.60;82.60
13600;DHT22;6871;51.34740610;4.31323160;2023-12-07T06:38:01;12.60;82.30
13600;DHT22;6871;51.34740610;4.31323160;2023-12-07T06:40:31;12.70;82.20
13600;DHT22;6871;51.34740610;4.31323160;2023-12-07T06:43:00;12.70;82.20
13600;DHT22;6871;51.34740610;4.31323160;2023-12-07T06:45:30;12.70;82.10
13600;DHT22;6871;51.34740610;4.31323160;2023-12-07T06:47:59;12.70;82.00
13600;DHT22;6871;51.34740610;4.31323160;2023-12-07T06:50:29;12.80;81.90
13600;DHT22;6871;51.34740610;4.31323160;2023-12-07T06:52:59;12.80;81.80
13600;DHT22;6871;51.34740610;4.31323160;2023-12-07T06:55:28;12.80;81.70
13600;DHT22;6871;51.34740610;4.31323160;2023-12-07T06:57:58;12.90;81.70
13600;DHT22;6871;51.34740610;4.31323160;2023-12-07T07:00:27;12.90;81.60
13600;DHT22;6871;51.34740610;4.31323160;2023-12-07T07:02:57;12.90;81.60
13600;DHT22;6871;51.34740610;4.31323160;2023-12-07T07:05:26;12.90;81.50
13600;DHT22;6871;51.34740610;4.31323160;2023-12-07T07:07:55;12.90;81.30
13600;DHT22;6871;51.34740610;4.31323160;2023-12-07T07:10:25;13.00;81.30
13600;DHT22;6871;51.34740610;4.31323160;2023-12-07T07:12:54;13.00;81.10
13600;DHT22;6871;51.34740610;4.31323160;2023-12-07T07:15:24;12.90;81.40
13600;DHT22;6871;51.34740610;4.31323160;2023-12-07T07:17:53;12.90;81.20
13600;DHT22;6871;51.34740610;4.31323160;2023-12-07T07:20:23;12.90;81.20
13600;DHT22;6871;51.34740610;4.31323160;2023-12-07T07:22:52;12.90;81.50
13600;DHT22;6871;51.34740610;4.31323160;2023-12-07T07:25:21;12.90;81.40
13600;DHT22;6871;51.34740610;4.31323160;2023-12-07T07:27:51;13.00;81.20
13600;DHT22;6871;51.34740610;4.31323160;2023-12-07T07:30:22;13.00;80.90
13600;DHT22;6871;51.34740610;4.31323160;2023-12-07T07:32:52;13.10;80.90
13600;DHT22;6871;51.34740610;4.31323160;2023-12-07T07:35:21;13.10;81.10
13600;DHT22;6871;51.34740610;4.31323160;2023-12-07T07:37:50;13.00;81.40
13600;DHT22;6871;51.34740610;4.31323160;2023-12-07T07:40:20;13.10;81.40
13600;DHT22;6871;51.34740610;4.31323160;2023-12-07T07:42:49;13.10;81.00
13600;DHT22;6871;51.34740610;4.31323160;2023-12-07T07:45:18;13.10;80.70
13600;DHT22;6871;51.34740610;4.31323160;2023-12-07T07:47:47;13.20;80.70
13600;DHT22;6871;51.34740610;4.31323160;2023-12-07T07:50:17;13.20;80.50
13600;DHT22;6871;51.34740610;4.31323160;2023-12-07T07:52:46;13.20;80.60
13600;DHT22;6871;51.34740610;4.31323160;2023-12-07T07:55:16;13.20;80.70
13600;DHT22;6871;51.34740610;4.31323160;2023-12-07T07:57:46;13.20;80.70
13600;DHT22;6871;51.34740610;4.31323160;2023-12-07T08:00:16;13.20;80.60
13600;DHT22;6871;51.34740610;4.31323160;2023-12-07T08:02:47;13.20;80.60
13600;DHT22;6871;51.34740610;4.31323160;2023-12-07T08:05:18;13.20;80.50
13600;DHT22;6871;51.34740610;4.31323160;2023-12-07T08:07:48;13.20;80.50
13600;DHT22;6871;51.34740610;4.31323160;2023-12-07T08:10:17;13.20;80.50
13600;DHT22;6871;51.34740610;4.31323160;2023-12-07T08:12:48;13.30;80.50
13600;DHT22;6871;51.34740610;4.31323160;2023-12-07T08:15:18;13.20;80.30
13600;DHT22;6871;51.34740610;4.31323160;2023-12-07T08:17:50;13.30;80.40
13600;DHT22;6871;51.34740610;4.31323160;2023-12-07T08:20:19;13.30;80.40
13600;DHT22;6871;51.34740610;4.31323160;2023-12-07T08:22:48;13.30;80.30
13600;DHT22;6871;51.34740610;4.31323160;2023-12-07T08:25:18;13.30;80.30
13600;DHT22;6871;51.34740610;4.31323160;2023-12-07T08:27:48;13.30;80.40
13600;DHT22;6871;51.34740610;4.31323160;2023-12-07T08:30:25;13.30;80.40
13600;DHT22;6871;51.34740610;4.31323160;2023-12-07T08:33:07;13.30;80.30
13600;DHT22;6871;51.34740610;4.31323160;2023-12-07T08:35:38;13.30;81.00
13600;DHT22;6871;51.34740610;4.31323160;2023-12-07T08:38:07;13.40;81.10
13600;DHT22;6871;51.34740610;4.31323160;2023-12-07T08:40:36;13.40;80.70
13600;DHT22;6871;51.34740610;4.31323160;2023-12-07T08:43:06;13.40;80.50
13600;DHT22;6871;51.34740610;4.31323160;2023-12-07T08:45:36;13.40;80.40
13600;DHT22;6871;51.34740610;4.31323160;2023-12-07T08:48:06;13.40;80.40
13600;DHT22;6871;51.34740610;4.31323160;2023-12-07T08:50:36;13.40;80.30
13600;DHT22;6871;51.34740610;4.31323160;2023-12-07T08:53:05;13.40;80.30
13600;DHT22;6871;51.34740610;4.31323160;2023-12-07T08:55:37;13.40;80.20
13600;DHT22;6871;51.34740610;4.31323160;2023-12-07T08:58:08;13.40;80.40
13600;DHT22;6871;51.34740610;4.31323160;2023-12-07T09:00:38;13.40;80.30
13600;DHT22;6871;51.34740610;4.31323160;2023-12-07T09:03:08;13.40;80.30
13600;DHT22;6871;51.34740610;4.31323160;2023-12-07T09:05:37;13.40;80.40
13600;DHT22;6871;51.34740610;4.31323160;2023-12-07T09:08:06;13.50;79.80
13600;DHT22;6871;51.34740610;4.31323160;2023-12-07T09:10:36;13.50;80.30
13600;DHT22;6871;51.34740610;4.31323160;2023-12-07T09:13:05;13.50;80.20
13600;DHT22;6871;51.34740610;4.31323160;2023-12-07T09:15:34;13.50;80.20
13600;DHT22;6871;51.34740610;4.31323160;2023-12-07T09:18:05;13.50;80.20
13600;DHT22;6871;51.34740610;4.31323160;2023-12-07T09:20:35;13.50;80.20
13600;DHT22;6871;51.34740610;4.31323160;2023-12-07T09:31:40;13.50;80.20
13600;DHT22;6871;51.34740610;4.31323160;2023-12-07T09:37:07;13.50;80.40
13600;DHT22;6871;51.34740610;4.31323160;2023-12-07T09:39:37;13.50;80.50
13600;DHT22;6871;51.34740610;4.31323160;2023-12-07T09:42:12;13.50;80.30
13600;DHT22;6871;51.34740610;4.31323160;2023-12-07T09:54:14;13.40;80.30
13600;DHT22;6871;51.34740610;4.31323160;2023-12-07T09:57:02;13.40;80.30
13600;DHT22;6871;51.34740610;4.31323160;2023-12-07T09:59:31;13.50;80.40
13600;DHT22;6871;51.34740610;4.31323160;2023-12-07T10:02:02;13.50;80.30
13600;DHT22;6871;51.34740610;4.31323160;2023-12-07T10:04:31;13.50;80.40
13600;DHT22;6871;51.34740610;4.31323160;2023-12-07T10:07:00;13.50;80.50
13600;DHT22;6871;51.34740610;4.31323160;2023-12-07T10:09:30;13.50;80.30
13600;DHT22;6871;51.34740610;4.31323160;2023-12-07T10:12:08;13.50;80.50
13600;DHT22;6871;51.34740610;4.31323160;2023-12-07T10:14:39;13.50;80.50
13600;DHT22;6871;51.34740610;4.31323160;2023-12-07T10:20:13;13.60;80.50
13600;DHT22;6871;51.34740610;4.31323160;2023-12-07T10:22:42;13.60;80.50
13600;DHT22;6871;51.34740610;4.31323160;2023-12-07T10:25:13;13.50;80.90
13600;DHT22;6871;51.34740610;4.31323160;2023-12-07T10:27:49;13.50;81.40
13600;DHT22;6871;51.34740610;4.31323160;2023-12-07T10:33:53;13.50;80.90
13600;DHT22;6871;51.34740610;4.31323160;2023-12-07T10:36:22;13.50;80.90
13600;DHT22;6871;51.34740610;4.31323160;2023-12-07T10:38:52;13.50;80.90
13600;DHT22;6871;51.34740610;4.31323160;2023-12-07T10:41:23;13.50;81.00
13600;DHT22;6871;51.34740610;4.31323160;2023-12-07T10:43:54;13.40;81.60
13600;DHT22;6871;51.34740610;4.31323160;2023-12-07T10:46:25;13.40;81.80
13600;DHT22;6871;51.34740610;4.31323160;2023-12-07T10:48:59;13.40;81.70
13600;DHT22;6871;51.34740610;4.31323160;2023-12-07T10:51:33;13.40;81.90
13600;DHT22;6871;51.34740610;4.31323160;2023-12-07T10:54:04;13.40;81.90
13600;DHT22;6871;51.34740610;4.31323160;2023-12-07T10:56:38;13.40;82.20
13600;DHT22;6871;51.34740610;4.31323160;2023-12-07T10:59:10;13.40;82.20
13600;DHT22;6871;51.34740610;4.31323160;2023-12-07T11:01:41;13.40;82.50
13600;DHT22;6871;51.34740610;4.31323160;2023-12-07T11:04:12;13.40;82.20
13600;DHT22;6871;51.34740610;4.31323160;2023-12-07T11:06:45;13.40;81.90
13600;DHT22;6871;51.34740610;4.31323160;2023-12-07T11:09:19;13.40;81.30
13600;DHT22;6871;51.34740610;4.31323160;2023-12-07T11:11:50;13.40;81.30
13600;DHT22;6871;51.34740610;4.31323160;2023-12-07T11:14:20;13.40;81.30
13600;DHT22;6871;51.34740610;4.31323160;2023-12-07T11:16:50;13.40;81.40
13600;DHT22;6871;51.34740610;4.31323160;2023-12-07T11:19:44;13.40;81.40
13600;DHT22;6871;51.34740610;4.31323160;2023-12-07T11:22:14;13.30;81.50
13600;DHT22;6871;51.34740610;4.31323160;2023-12-07T11:24:54;13.30;81.60
13600;DHT22;6871;51.34740610;4.31323160;2023-12-07T11:27:28;13.30;82.20
13600;DHT22;6871;51.34740610;4.31323160;2023-12-07T11:29:57;13.30;82.10
13600;DHT22;6871;51.34740610;4.31323160;2023-12-07T11:32:28;13.30;82.00
13600;DHT22;6871;51.34740610;4.31323160;2023-12-07T11:35:03;13.30;82.00
13600;DHT22;6871;51.34740610;4.31323160;2023-12-07T11:38:01;13.30;82.00
13600;DHT22;6871;51.34740610;4.31323160;2023-12-07T11:40:32;13.30;82.10
13600;DHT22;6871;51.34740610;4.31323160;2023-12-07T11:43:02;13.30;82.00
13600;DHT22;6871;51.34740610;4.31323160;2023-12-07T11:45:40;13.30;82.10
13600;DHT22;6871;51.34740610;4.31323160;2023-12-07T11:48:10;13.30;82.10
13600;DHT22;6871;51.34740610;4.31323160;2023-12-07T11:50:59;13.20;82.40
13600;DHT22;6871;51.34740610;4.31323160;2023-12-07T11:53:29;13.20;82.60
13600;DHT22;6871;51.34740610;4.31323160;2023-12-07T11:55:59;13.20;82.50
13600;DHT22;6871;51.34740610;4.31323160;2023-12-07T11:58:30;13.20;82.40
13600;DHT22;6871;51.34740610;4.31323160;2023-12-07T12:01:00;13.20;82.30
13600;DHT22;6871;51.34740610;4.31323160;2023-12-07T12:03:30;13.20;82.30
13600;DHT22;6871;51.34740610;4.31323160;2023-12-07T12:06:01;13.20;82.30
13600;DHT22;6871;51.34740610;4.31323160;2023-12-07T12:08:31;13.30;82.30
13600;DHT22;6871;51.34740610;4.31323160;2023-12-07T12:11:00;13.20;82.90
13600;DHT22;6871;51.34740610;4.31323160;2023-12-07T12:13:33;13.20;82.80
13600;DHT22;6871;51.34740610;4.31323160;2023-12-07T12:16:01;13.20;82.50
13600;DHT22;6871;51.34740610;4.31323160;2023-12-07T12:18:31;13.20;82.30
13600;DHT22;6871;51.34740610;4.31323160;2023-12-07T12:21:01;13.20;82.30
13600;DHT22;6871;51.34740610;4.31323160;2023-12-07T12:23:30;13.20;82.30
13600;DHT22;6871;51.34740610;4.31323160;2023-12-07T12:26:00;13.20;82.30
13600;DHT22;6871;51.34740610;4.31323160;2023-12-07T12:28:30;13.20;82.30
13600;DHT22;6871;51.34740610;4.31323160;2023-12-07T12:31:00;13.10;82.40
13600;DHT22;6871;51.34740610;4.31323160;2023-12-07T12:33:29;13.20;82.40
13600;DHT22;6871;51.34740610;4.31323160;2023-12-07T12:36:08;13.20;82.50
13600;DHT22;6871;51.34740610;4.31323160;2023-12-07T12:38:38;13.20;82.50
13600;DHT22;6871;51.34740610;4.31323160;2023-12-07T12:41:09;13.10;82.50
13600;DHT22;6871;51.34740610;4.31323160;2023-12-07T12:43:39;13.10;82.60
13600;DHT22;6871;51.34740610;4.31323160;2023-12-07T12:46:08;13.10;82.60
13600;DHT22;6871;51.34740610;4.31323160;2023-12-07T12:48:40;13.10;82.70
13600;DHT22;6871;51.34740610;4.31323160;2023-12-07T12:51:10;13.10;82.80
13600;DHT22;6871;51.34740610;4.31323160;2023-12-07T12:53:43;13.10;82.80
13600;DHT22;6871;51.34740610;4.31323160;2023-12-07T12:56:13;13.10;82.80
13600;DHT22;6871;51.34740610;4.31323160;2023-12-07T12:58:43;13.10;82.80
13600;DHT22;6871;51.34740610;4.31323160;2023-12-07T13:01:13;13.10;82.90
13600;DHT22;6871;51.34740610;4.31323160;2023-12-07T13:03:44;13.10;82.90
13600;DHT22;6871;51.34740610;4.31323160;2023-12-07T13:06:14;13.10;82.90
13600;DHT22;6871;51.34740610;4.31323160;2023-12-07T13:08:46;13.00;82.90
13600;DHT22;6871;51.34740610;4.31323160;2023-12-07T13:11:19;13.10;83.00
13600;DHT22;6871;51.34740610;4.31323160;2023-12-07T13:13:48;13.00;82.90
13600;DHT22;6871;51.34740610;4.31323160;2023-12-07T13:16:18;13.00;83.00
13600;DHT22;6871;51.34740610;4.31323160;2023-12-07T13:18:49;13.00;83.00
13600;DHT22;6871;51.34740610;4.31323160;2023-12-07T13:21:19;13.00;83.10
13600;DHT22;6871;51.34740610;4.31323160;2023-12-07T13:23:48;13.00;83.20
13600;DHT22;6871;51.34740610;4.31323160;2023-12-07T13:26:18;13.00;83.00
13600;DHT22;6871;51.34740610;4.31323160;2023-12-07T13:28:48;13.00;83.00
13600;DHT22;6871;51.34740610;4.31323160;2023-12-07T13:31:17;13.00;83.10
13600;DHT22;6871;51.34740610;4.31323160;2023-12-07T13:33:46;13.00;83.10
13600;DHT22;6871;51.34740610;4.31323160;2023-12-07T13:36:15;13.00;83.40
13600;DHT22;6871;51.34740610;4.31323160;2023-12-07T13:38:46;12.90;83.80
13600;DHT22;6871;51.34740610;4.31323160;2023-12-07T13:41:15;12.90;84.10
13600;DHT22;6871;51.34740610;4.31323160;2023-12-07T13:43:44;12.80;84.30
13600;DHT22;6871;51.34740610;4.31323160;2023-12-07T13:46:18;12.90;83.70
13600;DHT22;6871;51.34740610;4.31323160;2023-12-07T13:48:49;12.90;84.10
13600;DHT22;6871;51.34740610;4.31323160;2023-12-07T13:51:19;13.00;83.80
13600;DHT22;6871;51.34740610;4.31323160;2023-12-07T13:53:49;13.00;83.40
13600;DHT22;6871;51.34740610;4.31323160;2023-12-07T13:56:20;13.00;83.40
13600;DHT22;6871;51.34740610;4.31323160;2023-12-07T13:58:50;13.00;83.20
13600;DHT22;6871;51.34740610;4.31323160;2023-12-07T14:01:20;13.10;83.00
13600;DHT22;6871;51.34740610;4.31323160;2023-12-07T14:03:49;13.00;82.90
13600;DHT22;6871;51.34740610;4.31323160;2023-12-07T14:06:23;13.00;83.30
13600;DHT22;6871;51.34740610;4.31323160;2023-12-07T14:08:52;13.00;83.30
13600;DHT22;6871;51.34740610;4.31323160;2023-12-07T14:11:21;13.00;83.20
13600;DHT22;6871;51.34740610;4.31323160;2023-12-07T14:13:50;13.00;83.10
13600;DHT22;6871;51.34740610;4.31323160;2023-12-07T14:16:22;13.00;83.10
13600;DHT22;6871;51.34740610;4.31323160;2023-12-07T14:18:51;12.90;83.30